LFBI/PIS METAR and TAF weather

Enter ICAO airport designator
Station Type Date Time Source
LFBI METAR 2019/05/20 10:30 UTC NOAA

LFBI 201030Z AUTO 27006KT 220V330 9999 BKN025 BKN031 16/10 Q1013 TEMPO 4000 SHRA BKN035TCU


Station Type Date Time Source
LFBI Decoded METAR 2019/05/20 10:30 UTC NOAA

Poitiers, France (LFBI) 46-35N 000-19E 120M
May 20, 2019 - 06:30 AM EDT / 2019.05.20 1030 UTC
Wind: from the W (270 degrees) at 7 MPH (6 KT) (direction variable):0
Visibility: greater than 7 mile(s):0
Sky conditions: mostly cloudy
Weather: Towering cumulus clouds observed
Temperature: 60 F (16 C)
Dew Point: 50 F (10 C)
Relative Humidity: 67%
Pressure (altimeter): 29.91 in. Hg (1013 hPa)
ob: LFBI 201030Z AUTO 27006KT 220V330 9999 BKN025 BKN031 16/10 Q1013 TEMPO 4000 SHRA BKN035TCU
cycle: 10

Station Type Date Time Source
LFBI TAF 2019/05/20 06:25 UTC NOAA

TAF
AMD LFBI 200618Z 2006/2106 29005KT 9999 BKN005
TEMPO 2006/2008 3000 BR
BECMG 2008/2010 BKN015
BECMG 2010/2012 OVC035
TEMPO 2012/2018 4000 SHRA BKN035TCU

Example: see airport list